createdAt,value
2023-03-13T00:02:21.937Z,2.96
2023-03-13T00:04:49.525Z,2.82
2023-03-13T00:07:18.936Z,2.71
2023-03-13T00:09:45.987Z,2.63
2023-03-13T00:12:12.939Z,3.33
2023-03-13T00:14:40.242Z,3.12
2023-03-13T00:17:07.326Z,2.73
2023-03-13T00:19:37.405Z,2.58
2023-03-13T00:22:05.913Z,2.91
2023-03-13T00:24:33.390Z,3.35
2023-03-13T00:27:07.788Z,3.31
2023-03-13T00:29:34.842Z,2.98
2023-03-13T00:32:09.688Z,2.99
2023-03-13T00:34:45.378Z,2.75
2023-03-13T00:37:14.990Z,2.12
2023-03-13T00:39:45.505Z,2.34
2023-03-13T00:42:13.752Z,2.14
2023-03-13T00:44:42.822Z,2.32
2023-03-13T00:47:10.846Z,2.27
2023-03-13T00:49:38.182Z,2.19
2023-03-13T00:52:05.564Z,2.09
2023-03-13T00:54:32.841Z,2.29
2023-03-13T00:57:00.118Z,2.25
2023-03-13T00:59:32.993Z,2.07
2023-03-13T01:02:03.813Z,2.14
2023-03-13T01:04:31.226Z,2.06
2023-03-13T01:07:01.450Z,2.11
2023-03-13T01:09:32.209Z,2.03
2023-03-13T01:12:01.968Z,2.07
2023-03-13T01:14:30.455Z,1.83
2023-03-13T01:16:59.173Z,1.87
2023-03-13T01:19:26.969Z,1.86
2023-03-13T01:21:55.261Z,2.01
2023-03-13T01:24:23.206Z,2.55
2023-03-13T01:26:52.710Z,1.87
2023-03-13T01:29:20.916Z,1.77
2023-03-13T01:31:49.256Z,1.71
2023-03-13T01:34:16.692Z,1.83
2023-03-13T01:36:43.443Z,1.79
2023-03-13T01:39:10.587Z,1.76
2023-03-13T01:41:41.325Z,1.85
2023-03-13T01:44:37.120Z,1.67
2023-03-13T01:47:07.185Z,1.90
2023-03-13T01:49:35.464Z,1.87
2023-03-13T01:52:08.010Z,1.79
2023-03-13T01:54:58.390Z,1.73
2023-03-13T01:57:34.478Z,1.73
2023-03-13T02:00:34.193Z,1.85
2023-03-13T02:03:03.282Z,1.80
2023-03-13T02:05:37.840Z,1.88
2023-03-13T02:08:32.161Z,1.68
2023-03-13T02:11:08.867Z,1.70
2023-03-13T02:13:56.670Z,1.67
2023-03-13T02:16:23.507Z,1.76
2023-03-13T02:18:53.217Z,1.74
2023-03-13T02:21:50.482Z,1.73
2023-03-13T02:24:40.201Z,1.66
2023-03-13T02:27:26.706Z,1.71
2023-03-13T02:29:53.432Z,1.70
2023-03-13T02:32:36.411Z,1.74
2023-03-13T02:35:07.006Z,1.51
2023-03-13T02:37:36.846Z,1.59
2023-03-13T02:40:06.484Z,1.67
2023-03-13T02:42:33.851Z,1.67
2023-03-13T02:45:00.670Z,1.53
2023-03-13T02:47:27.429Z,1.57
2023-03-13T02:49:54.168Z,1.67
2023-03-13T02:52:26.547Z,1.50
2023-03-13T02:54:56.674Z,1.48
2023-03-13T02:57:23.716Z,1.52
2023-03-13T02:59:50.398Z,1.53
2023-03-13T03:02:17.528Z,1.71
2023-03-13T03:04:47.202Z,1.53
2023-03-13T03:07:14.228Z,1.67
2023-03-13T03:09:41.275Z,1.68
2023-03-13T03:12:10.816Z,1.59
2023-03-13T03:14:38.060Z,1.59
2023-03-13T03:17:07.601Z,1.69
2023-03-13T03:19:37.147Z,1.80
2023-03-13T03:22:06.782Z,1.57
2023-03-13T03:24:33.822Z,1.62
2023-03-13T03:27:00.907Z,1.40
2023-03-13T03:29:29.145Z,1.38
2023-03-13T03:31:58.924Z,1.29
2023-03-13T03:34:26.313Z,1.29
2023-03-13T03:36:53.405Z,1.38
2023-03-13T03:39:20.717Z,1.31
2023-03-13T03:41:48.110Z,1.36
2023-03-13T03:44:14.907Z,1.27
2023-03-13T03:46:42.113Z,1.41
2023-03-13T03:49:08.901Z,1.58
2023-03-13T03:51:35.979Z,1.36
2023-03-13T03:54:03.046Z,1.57
2023-03-13T03:56:30.278Z,1.52
2023-03-13T03:58:57.019Z,1.44
2023-03-13T04:01:24.899Z,1.51
2023-03-13T04:03:51.954Z,1.51
2023-03-13T04:06:18.736Z,1.69
2023-03-13T04:08:45.942Z,1.74
2023-03-13T04:11:15.577Z,1.86
2023-03-13T04:13:42.677Z,1.99
2023-03-13T04:16:10.113Z,1.87
2023-03-13T04:18:36.917Z,1.69
2023-03-13T04:21:04.750Z,1.79
2023-03-13T04:23:32.730Z,1.62
2023-03-13T04:26:01.416Z,1.71
2023-03-13T04:28:31.073Z,1.81
2023-03-13T04:30:57.843Z,1.96
2023-03-13T04:33:25.217Z,1.74
2023-03-13T04:35:53.370Z,1.95
2023-03-13T04:38:23.212Z,1.82
2023-03-13T04:40:50.024Z,1.90
2023-03-13T04:43:17.334Z,1.71
2023-03-13T04:45:44.070Z,1.91
2023-03-13T04:48:11.164Z,1.80
2023-03-13T04:50:37.982Z,1.97
2023-03-13T04:53:07.690Z,1.90
2023-03-13T04:55:35.180Z,1.81
2023-03-13T04:58:04.702Z,1.94
2023-03-13T05:00:32.408Z,1.81
2023-03-13T05:02:59.548Z,1.74
2023-03-13T05:05:27.430Z,1.79
2023-03-13T05:07:54.794Z,1.88
2023-03-13T05:10:21.865Z,1.62
2023-03-13T05:12:48.785Z,1.63
2023-03-13T05:15:16.269Z,1.61
2023-03-13T05:17:43.024Z,1.82
2023-03-13T05:20:11.348Z,1.72
2023-03-13T05:22:38.449Z,1.67
2023-03-13T05:25:06.673Z,1.70
2023-03-13T05:27:33.881Z,1.72
2023-03-13T05:30:01.026Z,1.59
2023-03-13T05:32:27.816Z,1.54
2023-03-13T05:34:54.936Z,1.70
2023-03-13T05:37:22.824Z,1.64
2023-03-13T05:39:57.342Z,1.68
2023-03-13T05:42:24.086Z,1.51
2023-03-13T05:44:50.827Z,1.80
2023-03-13T05:47:18.779Z,1.64
2023-03-13T05:49:45.538Z,1.46
2023-03-13T05:52:15.116Z,1.54
2023-03-13T05:54:42.218Z,1.67
2023-03-13T05:57:11.742Z,1.60
2023-03-13T05:59:38.761Z,1.50
2023-03-13T06:02:07.040Z,1.58
2023-03-13T06:04:36.822Z,1.66
2023-03-13T06:07:05.534Z,1.58
2023-03-13T06:09:32.350Z,1.52
2023-03-13T06:12:00.221Z,1.58
2023-03-13T06:14:29.863Z,1.60
2023-03-13T06:16:57.104Z,1.36
2023-03-13T06:19:26.456Z,1.44
2023-03-13T06:21:54.419Z,1.39
2023-03-13T06:24:22.364Z,1.36
2023-03-13T06:26:49.979Z,1.28
2023-03-13T06:29:17.031Z,1.47
2023-03-13T06:31:50.566Z,1.49
2023-03-13T06:34:17.444Z,1.26
2023-03-13T06:36:45.141Z,1.46
2023-03-13T06:39:11.954Z,1.37
2023-03-13T06:41:39.042Z,1.30
2023-03-13T06:44:08.584Z,1.21
2023-03-13T06:46:35.296Z,1.33
2023-03-13T06:49:04.327Z,1.31
2023-03-13T06:51:32.417Z,1.32
2023-03-13T06:53:59.211Z,1.24
2023-03-13T06:56:27.120Z,1.65
2023-03-13T06:58:54.240Z,1.61
2023-03-13T07:01:21.093Z,1.58
2023-03-13T07:03:48.526Z,1.40
2023-03-13T07:06:18.629Z,1.32
2023-03-13T07:08:46.643Z,1.44
2023-03-13T07:11:15.250Z,1.53
2023-03-13T07:13:42.009Z,1.60
2023-03-13T07:16:12.196Z,1.50
2023-03-13T07:18:39.393Z,1.36
2023-03-13T07:21:07.475Z,1.27
2023-03-13T07:23:34.791Z,1.36
2023-03-13T07:26:05.538Z,1.41
2023-03-13T07:28:32.251Z,1.25
2023-03-13T07:31:06.784Z,1.27
2023-03-13T07:33:36.326Z,1.36
2023-03-13T07:36:04.820Z,1.36
2023-03-13T07:38:32.148Z,1.35
2023-03-13T07:41:02.016Z,1.17
2023-03-13T07:43:31.704Z,1.14
2023-03-13T07:46:02.959Z,1.18
2023-03-13T07:48:31.642Z,1.16
2023-03-13T07:50:59.060Z,1.16
2023-03-13T07:53:26.351Z,1.01
2023-03-13T07:55:54.535Z,1.11
2023-03-13T07:58:21.835Z,1.02
2023-03-13T08:00:48.584Z,0.84
2023-03-13T08:03:15.624Z,0.93
2023-03-13T08:05:42.936Z,0.95
2023-03-13T08:08:10.273Z,0.94
2023-03-13T08:10:37.021Z,0.93
2023-03-13T08:13:06.806Z,1.06
2023-03-13T08:15:36.106Z,0.97
2023-03-13T08:18:03.198Z,0.83
2023-03-13T08:20:30.341Z,0.90
2023-03-13T08:22:57.035Z,0.92
2023-03-13T08:25:25.007Z,0.82
2023-03-13T08:27:54.710Z,0.98
2023-03-13T08:30:22.096Z,0.99
2023-03-13T08:32:48.881Z,0.97
2023-03-13T08:35:15.774Z,1.06
2023-03-13T08:37:42.929Z,0.87
2023-03-13T08:40:12.756Z,0.93
2023-03-13T08:42:39.771Z,0.80
2023-03-13T08:45:08.014Z,0.87
2023-03-13T08:47:34.776Z,0.84
2023-03-13T08:50:01.562Z,1.09
2023-03-13T08:52:28.804Z,0.82
2023-03-13T08:54:55.831Z,1.01
2023-03-13T08:57:23.506Z,0.89
2023-03-13T08:59:50.555Z,0.78
2023-03-13T09:02:17.321Z,0.81
2023-03-13T09:04:44.188Z,0.79
2023-03-13T09:07:13.977Z,0.71
2023-03-13T09:09:41.666Z,0.83
2023-03-13T09:12:21.324Z,0.87
2023-03-13T09:14:55.361Z,0.84
2023-03-13T09:17:22.119Z,0.79
2023-03-13T09:19:59.813Z,0.69
2023-03-13T09:22:29.352Z,0.82
2023-03-13T09:24:56.384Z,0.95
2023-03-13T09:27:23.147Z,0.86
2023-03-13T09:29:49.876Z,1.06
2023-03-13T09:32:16.739Z,1.01
2023-03-13T09:34:44.200Z,0.99
2023-03-13T09:37:11.221Z,0.94
2023-03-13T09:39:38.299Z,0.88
2023-03-13T09:42:13.966Z,0.83
2023-03-13T09:45:01.627Z,0.97
2023-03-13T09:47:47.248Z,0.89
2023-03-13T09:50:18.338Z,0.91
2023-03-13T09:52:48.564Z,0.72
2023-03-13T09:55:29.042Z,0.82
2023-03-13T09:58:02.812Z,0.76
2023-03-13T10:00:35.403Z,0.94
2023-03-13T10:03:15.373Z,0.70
2023-03-13T10:05:57.224Z,0.88
2023-03-13T10:08:25.497Z,0.94
2023-03-13T10:11:03.996Z,0.83
2023-03-13T10:13:49.534Z,0.95
2023-03-13T10:16:30.386Z,0.87
2023-03-13T10:18:58.604Z,0.86
2023-03-13T10:21:33.057Z,0.93
2023-03-13T10:24:39.654Z,0.95
2023-03-13T10:27:11.280Z,1.01
2023-03-13T10:29:38.369Z,0.77
2023-03-13T10:32:06.463Z,0.96
2023-03-13T10:34:52.910Z,1.03
2023-03-13T10:37:23.249Z,0.87
2023-03-13T10:39:49.956Z,0.88
2023-03-13T10:42:23.133Z,0.88
2023-03-13T10:44:49.882Z,1.11
2023-03-13T10:47:17.021Z,1.16
2023-03-13T10:49:51.591Z,1.06
2023-03-13T10:52:50.584Z,0.87
2023-03-13T10:55:21.879Z,0.95
2023-03-13T10:58:15.910Z,0.98
2023-03-13T11:00:42.705Z,0.88
2023-03-13T11:03:31.798Z,0.95
2023-03-13T11:06:02.297Z,0.73
2023-03-13T11:08:34.486Z,0.84
2023-03-13T11:11:02.618Z,0.92
2023-03-13T11:13:44.528Z,0.94
2023-03-13T11:16:18.263Z,1.04
2023-03-13T11:19:14.071Z,0.90
2023-03-13T11:22:08.253Z,0.75
2023-03-13T11:25:01.529Z,0.80
2023-03-13T11:27:31.501Z,0.90
2023-03-13T11:30:17.959Z,1.30
2023-03-13T11:33:04.969Z,0.93
2023-03-13T11:36:02.861Z,1.00
2023-03-13T11:38:38.235Z,0.93
2023-03-13T11:41:20.038Z,0.99
2023-03-13T11:44:11.543Z,0.97
2023-03-13T11:47:21.151Z,0.94
2023-03-13T11:50:11.597Z,0.99
2023-03-13T11:53:08.538Z,1.10
2023-03-13T11:56:15.062Z,1.00
2023-03-13T11:58:42.933Z,1.12
2023-03-13T12:01:11.726Z,1.14
2023-03-13T12:04:07.409Z,0.97
2023-03-13T12:07:26.520Z,1.04
2023-03-13T12:10:04.524Z,0.87
2023-03-13T12:12:55.278Z,0.89
2023-03-13T12:15:43.831Z,0.97
2023-03-13T12:18:31.165Z,0.88
2023-03-13T12:21:16.880Z,0.99
2023-03-13T12:23:58.345Z,0.88
2023-03-13T12:26:34.994Z,0.93
2023-03-13T12:29:30.446Z,0.95
2023-03-13T12:32:19.866Z,1.03
2023-03-13T12:35:09.275Z,0.92
2023-03-13T12:38:20.001Z,0.91
2023-03-13T12:41:09.786Z,0.95
2023-03-13T12:43:39.435Z,0.94
2023-03-13T12:46:30.429Z,0.99
2023-03-13T12:49:25.585Z,1.11
2023-03-13T12:52:08.196Z,0.96
2023-03-13T12:54:59.183Z,0.86
2023-03-13T12:57:51.936Z,1.00
2023-03-13T13:00:23.175Z,0.93
2023-03-13T13:03:10.962Z,1.00
2023-03-13T13:05:38.862Z,0.95
2023-03-13T13:08:21.969Z,0.90
2023-03-13T13:10:48.813Z,0.93
2023-03-13T13:13:19.646Z,1.03
2023-03-13T13:15:47.358Z,1.02
2023-03-13T13:18:49.866Z,0.98
2023-03-13T13:21:22.894Z,1.21
2023-03-13T13:23:49.970Z,0.98
2023-03-13T13:26:27.999Z,1.04
2023-03-13T13:28:59.314Z,0.99
2023-03-13T13:31:46.085Z,1.11
2023-03-13T13:34:37.322Z,1.09
2023-03-13T13:37:13.183Z,1.03
2023-03-13T13:39:47.667Z,0.97
2023-03-13T13:42:58.960Z,0.85
2023-03-13T13:45:31.755Z,1.04
2023-03-13T13:48:27.046Z,1.09
2023-03-13T13:51:11.847Z,1.03
2023-03-13T13:53:46.517Z,0.95
2023-03-13T13:56:29.136Z,0.84
2023-03-13T13:59:22.053Z,0.79
2023-03-13T14:02:12.775Z,0.82
2023-03-13T14:04:49.849Z,0.96
2023-03-13T14:07:19.252Z,0.91
2023-03-13T14:10:03.385Z,0.89
2023-03-13T14:12:37.329Z,0.92
2023-03-13T14:15:19.153Z,1.03
2023-03-13T14:18:15.714Z,1.02
2023-03-13T14:20:55.663Z,1.14
2023-03-13T14:23:51.923Z,0.88
2023-03-13T14:26:22.561Z,0.82
2023-03-13T14:28:53.355Z,0.86
2023-03-13T14:31:23.974Z,0.99
2023-03-13T14:33:51.297Z,1.26
2023-03-13T14:36:18.009Z,0.96
2023-03-13T14:38:58.625Z,0.89
2023-03-13T14:41:31.227Z,0.87
2023-03-13T14:44:14.898Z,0.94
2023-03-13T14:46:42.223Z,0.81
2023-03-13T14:49:28.039Z,0.83
2023-03-13T14:52:04.868Z,0.89
2023-03-13T14:54:33.251Z,0.86
2023-03-13T14:57:16.459Z,0.86
2023-03-13T14:59:43.569Z,0.85
2023-03-13T15:02:15.626Z,0.85
2023-03-13T15:04:53.071Z,0.95
2023-03-13T15:07:19.993Z,0.98
2023-03-13T15:09:47.012Z,1.00
2023-03-13T15:12:16.549Z,0.98
2023-03-13T15:14:45.197Z,1.15
2023-03-13T15:17:32.407Z,0.99
2023-03-13T15:19:59.279Z,1.04
2023-03-13T15:22:32.853Z,0.83
2023-03-13T15:25:07.924Z,0.92
2023-03-13T15:27:34.989Z,0.97
2023-03-13T15:30:01.770Z,0.86
2023-03-13T15:32:37.438Z,0.73
2023-03-13T15:35:26.941Z,0.87
2023-03-13T15:37:53.964Z,0.80
2023-03-13T15:40:22.969Z,0.86
2023-03-13T15:42:51.963Z,0.78
2023-03-13T15:45:20.123Z,0.74
2023-03-13T15:47:46.936Z,0.80
2023-03-13T15:50:14.264Z,0.84
2023-03-13T15:52:41.762Z,1.78
2023-03-13T15:55:11.538Z,1.16
2023-03-13T15:57:42.858Z,0.78
2023-03-13T16:00:25.023Z,0.80
2023-03-13T16:02:51.783Z,0.78
2023-03-13T16:05:18.526Z,0.73
2023-03-13T16:07:48.245Z,0.78
2023-03-13T16:10:20.170Z,0.82
2023-03-13T16:12:47.297Z,0.83
2023-03-13T16:15:14.991Z,0.82
2023-03-13T16:17:42.244Z,0.81
2023-03-13T16:20:14.869Z,0.76
2023-03-13T16:22:41.722Z,0.89
2023-03-13T16:25:08.839Z,0.90
2023-03-13T16:27:38.429Z,0.82
2023-03-13T16:30:07.583Z,0.83
2023-03-13T16:32:34.879Z,0.89
2023-03-13T16:35:01.894Z,0.80
2023-03-13T16:37:28.574Z,0.90
2023-03-13T16:39:55.317Z,0.83
2023-03-13T16:42:25.194Z,0.84
2023-03-13T16:44:52.146Z,0.94
2023-03-13T16:47:23.842Z,0.87
2023-03-13T16:49:50.564Z,0.88
2023-03-13T16:52:17.941Z,0.83
2023-03-13T16:54:47.223Z,0.78
2023-03-13T16:57:18.831Z,0.71
2023-03-13T16:59:49.419Z,0.90
2023-03-13T17:02:20.282Z,0.90
2023-03-13T17:04:47.311Z,0.87
2023-03-13T17:07:23.229Z,0.93
2023-03-13T17:09:50.972Z,0.92
2023-03-13T17:12:18.162Z,0.93
2023-03-13T17:14:47.782Z,1.01
2023-03-13T17:17:18.754Z,0.96
2023-03-13T17:19:45.802Z,1.01
2023-03-13T17:22:13.855Z,0.99
2023-03-13T17:24:43.409Z,1.09
2023-03-13T17:27:15.194Z,1.02
2023-03-13T17:29:42.952Z,1.16
2023-03-13T17:32:13.788Z,1.22
2023-03-13T17:34:43.387Z,1.24
2023-03-13T17:37:33.905Z,1.33
2023-03-13T17:40:01.034Z,1.37
2023-03-13T17:42:28.175Z,1.33
2023-03-13T17:44:55.619Z,1.32
2023-03-13T17:47:22.674Z,1.47
2023-03-13T17:49:49.695Z,1.33
2023-03-13T17:52:16.912Z,1.46
2023-03-13T17:54:45.414Z,1.47
2023-03-13T17:57:17.235Z,1.39
2023-03-13T17:59:44.604Z,1.44
2023-03-13T18:02:15.060Z,1.32
2023-03-13T18:04:42.065Z,1.37
2023-03-13T18:07:28.671Z,1.47
2023-03-13T18:09:56.668Z,1.59
2023-03-13T18:12:24.717Z,1.52
2023-03-13T18:14:51.954Z,1.48
2023-03-13T18:17:21.134Z,1.52
2023-03-13T18:19:49.501Z,1.64
2023-03-13T18:22:20.271Z,1.81
2023-03-13T18:24:48.839Z,1.49
2023-03-13T18:27:19.909Z,1.70
2023-03-13T18:29:47.300Z,1.72
2023-03-13T18:32:17.331Z,1.69
2023-03-13T18:34:44.158Z,1.83
2023-03-13T18:37:17.852Z,1.97
2023-03-13T18:39:44.892Z,1.96
2023-03-13T18:42:49.981Z,2.14
2023-03-13T18:45:33.068Z,2.06
2023-03-13T18:47:59.925Z,2.17
2023-03-13T18:50:29.139Z,2.17
2023-03-13T18:52:57.126Z,2.21
2023-03-13T18:55:24.930Z,2.17
2023-03-13T18:57:51.736Z,2.11
2023-03-13T19:00:23.523Z,2.16
2023-03-13T19:02:50.316Z,2.37
2023-03-13T19:05:18.660Z,2.32
2023-03-13T19:07:45.557Z,2.22
2023-03-13T19:10:34.155Z,2.32
2023-03-13T19:13:02.142Z,2.57
2023-03-13T19:15:29.121Z,2.29
2023-03-13T19:17:59.333Z,2.39
2023-03-13T19:20:27.661Z,2.74
2023-03-13T19:22:56.230Z,2.41
2023-03-13T19:25:23.400Z,2.46
2023-03-13T19:27:50.260Z,2.64
2023-03-13T19:30:24.243Z,2.52
2023-03-13T19:32:51.341Z,2.64
2023-03-13T19:35:18.301Z,2.65
2023-03-13T19:37:45.423Z,2.71
2023-03-13T19:40:16.996Z,2.72
2023-03-13T19:42:44.043Z,2.77
2023-03-13T19:45:11.883Z,2.85
2023-03-13T19:47:40.052Z,2.81
2023-03-13T19:50:07.957Z,3.06
2023-03-13T19:52:34.874Z,2.99
2023-03-13T19:55:03.830Z,3.01
2023-03-13T19:57:32.047Z,2.91
2023-03-13T20:00:00.022Z,2.96
2023-03-13T20:02:27.534Z,3.03
2023-03-13T20:04:54.685Z,3.25
2023-03-13T20:07:21.729Z,3.13
2023-03-13T20:09:48.868Z,3.33
2023-03-13T20:12:15.703Z,3.10
2023-03-13T20:14:42.526Z,2.81
2023-03-13T20:17:09.629Z,2.96
2023-03-13T20:19:36.913Z,3.32
2023-03-13T20:22:03.692Z,3.17
2023-03-13T20:24:31.638Z,3.07
2023-03-13T20:26:59.475Z,3.07
2023-03-13T20:29:26.272Z,3.05
2023-03-13T20:31:53.550Z,3.12
2023-03-13T20:34:22.552Z,3.36
2023-03-13T20:36:50.894Z,3.49
2023-03-13T20:39:17.712Z,3.56
2023-03-13T20:41:45.985Z,3.81
2023-03-13T20:44:12.695Z,2.98
2023-03-13T20:46:40.944Z,3.06
2023-03-13T20:53:13.621Z,2.63
2023-03-13T20:55:40.997Z,2.05
2023-03-13T20:58:11.566Z,2.16
2023-03-13T21:00:41.379Z,1.66
2023-03-13T21:03:08.921Z,1.77
2023-03-13T21:05:44.238Z,1.89
2023-03-13T21:08:12.267Z,1.75
2023-03-13T21:10:39.553Z,1.69
2023-03-13T21:13:06.564Z,1.30
2023-03-13T21:15:34.376Z,1.29
2023-03-13T21:18:04.051Z,1.09
2023-03-13T21:20:33.887Z,1.10
2023-03-13T21:23:00.934Z,0.93
2023-03-13T21:25:27.971Z,0.75
2023-03-13T21:27:54.677Z,0.87
2023-03-13T21:30:24.353Z,0.74
2023-03-13T21:32:51.457Z,0.66
2023-03-13T21:35:18.613Z,0.45
2023-03-13T21:37:45.674Z,0.29
2023-03-13T21:40:12.566Z,0.26
2023-03-13T21:42:39.375Z,0.27
2023-03-13T21:45:10.033Z,0.30
2023-03-13T21:47:36.983Z,0.25
2023-03-13T21:50:06.005Z,0.22
2023-03-13T21:52:34.369Z,0.20
2023-03-13T21:55:05.575Z,0.15
2023-03-13T21:57:32.414Z,0.19
2023-03-13T21:59:59.241Z,0.17
2023-03-13T22:02:25.945Z,0.19
2023-03-13T22:04:53.060Z,0.15
2023-03-13T22:07:22.716Z,0.22
2023-03-13T22:09:52.158Z,0.20
2023-03-13T22:12:19.235Z,0.16
2023-03-13T22:14:46.989Z,0.20
2023-03-13T22:17:14.025Z,0.19
2023-03-13T22:19:41.082Z,0.19
2023-03-13T22:22:08.153Z,0.15
2023-03-13T22:24:36.698Z,0.21
2023-03-13T22:27:04.756Z,0.24
2023-03-13T22:29:32.514Z,0.16
2023-03-13T22:31:59.280Z,0.19
2023-03-13T22:34:27.011Z,0.20
2023-03-13T22:36:56.509Z,0.17
2023-03-13T22:39:23.545Z,0.21
2023-03-13T22:41:50.724Z,0.22
2023-03-13T22:44:17.502Z,0.22
2023-03-13T22:46:44.744Z,0.32
2023-03-13T22:49:12.797Z,0.30
2023-03-13T22:51:40.974Z,0.20
2023-03-13T22:54:08.022Z,0.24
2023-03-13T22:56:37.403Z,0.25
2023-03-13T22:59:04.452Z,0.21
2023-03-13T23:01:34.154Z,0.25
2023-03-13T23:04:03.936Z,0.17
2023-03-13T23:06:33.429Z,0.28
2023-03-13T23:09:00.194Z,0.20
2023-03-13T23:11:27.359Z,0.45
2023-03-13T23:13:54.117Z,1.64
2023-03-13T23:16:20.963Z,0.25
2023-03-13T23:18:47.780Z,0.29
2023-03-13T23:21:14.967Z,0.20
2023-03-13T23:23:44.535Z,0.20
2023-03-13T23:26:16.213Z,0.24
2023-03-13T23:28:42.981Z,0.21
2023-03-13T23:31:14.642Z,0.22
2023-03-13T23:33:41.776Z,0.25
2023-03-13T23:36:12.971Z,0.22
2023-03-13T23:38:41.064Z,0.33
2023-03-13T23:41:12.065Z,0.20
2023-03-13T23:43:41.809Z,0.17
2023-03-13T23:46:15.436Z,0.20
2023-03-13T23:48:45.017Z,0.20
2023-03-13T23:51:12.076Z,0.24
2023-03-13T23:53:39.349Z,0.21
2023-03-13T23:56:07.638Z,0.21
2023-03-13T23:58:37.237Z,0.16
